Time;durP1;ratioP1;P1;durP2;ratioP2;P2;SDS_P1;SDS_P2;PMS_P1;PMS_P2;Temp;Humidity;BMP_temperature;BMP_pressure;BME280_temperature;BME280_humidity;BME280_pressure;Samples;Min_cycle;Max_cycle;Signal;HPM_P1;HPM_P2
2022/04/11 00:00:59;;;;;;;1.83;0.90;;;;;;;2.34;98.76;100870.03;5071927;28;20179;-72
2022/04/11 00:03:25;;;;;;;1.57;1.33;;;;;;;2.17;98.97;100874.59;5071927;28;20261;-72
2022/04/11 00:05:50;;;;;;;3.43;0.93;;;;;;;2.15;99.82;100870.50;5071787;28;20175;-72
2022/04/11 00:08:16;;;;;;;0.73;0.60;;;;;;;2.23;99.98;100872.81;5071591;28;20179;-72
2022/04/11 00:10:41;;;;;;;0.27;0.27;;;;;;;2.36;99.94;100870.59;5071625;28;20214;-71
2022/04/11 00:13:07;;;;;;;1.20;1.20;;;;;;;2.48;99.23;100873.19;5072059;28;20623;-72
2022/04/11 00:15:34;;;;;;;0.37;0.37;;;;;;;2.61;98.30;100875.56;5071450;28;20189;-72
2022/04/11 00:18:02;;;;;;;1.77;1.20;;;;;;;2.74;97.14;100866.25;5071406;28;20420;-72
2022/04/11 00:20:29;;;;;;;3.27;1.13;;;;;;;2.68;96.19;100861.88;5071237;28;20182;-72
2022/04/11 00:22:54;;;;;;;1.43;0.70;;;;;;;2.69;96.09;100860.81;5071516;28;20639;-72
2022/04/11 00:25:20;;;;;;;0.47;0.47;;;;;;;2.73;95.87;100870.03;5071452;28;20178;-72
2022/04/11 00:27:45;;;;;;;0.77;0.77;;;;;;;2.75;95.62;100867.91;5071259;28;20179;-71
2022/04/11 00:30:11;;;;;;;0.50;0.50;;;;;;;2.82;95.04;100865.03;5071302;28;20198;-72
2022/04/11 00:32:44;;;;;;;2.13;0.77;;;;;;;2.79;94.52;100863.66;5071389;28;20181;-72
2022/04/11 00:35:09;;;;;;;1.50;0.80;;;;;;;2.78;94.54;100856.63;5071255;28;20683;-72
2022/04/11 00:37:35;;;;;;;0.90;0.60;;;;;;;2.81;94.77;100863.41;5071034;28;20266;-71
2022/04/11 00:40:00;;;;;;;2.30;1.30;;;;;;;2.79;94.54;100860.13;5070889;28;20182;-72
2022/04/11 00:42:29;;;;;;;1.40;1.07;;;;;;;2.82;94.41;100859.63;5071388;28;20174;-71
2022/04/11 00:44:54;;;;;;;1.00;0.80;;;;;;;2.71;94.45;100861.38;5071135;28;20174;-72
2022/04/11 00:47:19;;;;;;;3.47;0.90;;;;;;;2.75;94.56;100856.28;5070904;28;20413;-72
2022/04/11 00:49:46;;;;;;;2.50;0.87;;;;;;;2.72;94.28;100848.69;5071081;28;20206;-72
2022/04/11 00:52:13;;;;;;;0.70;0.57;;;;;;;2.70;94.79;100846.25;5071348;28;20209;-72
2022/04/11 00:54:39;;;;;;;1.40;0.83;;;;;;;2.66;94.57;100847.81;5071328;28;20560;-72
2022/04/11 00:57:05;;;;;;;1.87;1.43;;;;;;;2.64;95.26;100845.38;5071030;28;20417;-73
2022/04/11 00:59:31;;;;;;;3.47;1.13;;;;;;;2.65;94.94;100846.19;5071161;28;20509;-72
2022/04/11 01:01:56;;;;;;;1.10;1.00;;;;;;;2.63;94.96;100843.75;5071091;28;20174;-72
2022/04/11 01:04:26;;;;;;;1.40;0.97;;;;;;;2.61;94.93;100850.47;5070905;28;20710;-72
2022/04/11 01:06:55;;;;;;;1.00;0.70;;;;;;;2.62;95.04;100849.38;5070689;28;20162;-72
2022/04/11 01:09:25;;;;;;;2.07;1.20;;;;;;;2.61;95.45;100855.84;5070765;28;20222;-72
2022/04/11 01:11:51;;;;;;;2.30;1.30;;;;;;;2.58;95.00;100840.16;5070713;28;20178;-72
2022/04/11 01:14:17;;;;;;;3.60;1.57;;;;;;;2.50;94.88;100846.78;5070713;28;20570;-72
2022/04/11 01:16:52;;;;;;;1.47;1.00;;;;;;;2.37;95.11;100850.66;5070718;28;20178;-73
2022/04/11 01:19:18;;;;;;;1.20;0.97;;;;;;;2.35;95.78;100847.38;5070753;28;20178;-71
2022/04/11 01:21:45;;;;;;;2.70;1.83;;;;;;;2.46;95.67;100845.66;5070884;28;20210;-72
2022/04/11 01:24:11;;;;;;;2.13;1.83;;;;;;;2.54;95.47;100852.50;5070616;28;20177;-72
2022/04/11 01:26:37;;;;;;;3.67;2.10;;;;;;;2.48;94.94;100854.31;5070669;28;20170;-72
2022/04/11 01:29:06;;;;;;;1.67;1.33;;;;;;;2.63;94.37;100859.13;5070309;28;20594;-72
2022/04/11 01:31:31;;;;;;;3.40;2.57;;;;;;;2.75;93.68;100858.97;5070597;28;20199;-72
2022/04/11 01:33:57;;;;;;;9.07;2.70;;;;;;;2.79;92.63;100849.34;5073729;28;20213;-72
2022/04/11 01:36:23;;;;;;;2.60;2.40;;;;;;;2.85;91.85;100856.44;5074978;28;20171;-72
2022/04/11 01:38:48;;;;;;;5.17;2.60;;;;;;;2.80;91.31;100850.97;5074377;28;20253;-72
2022/04/11 01:41:13;;;;;;;0.87;0.77;;;;;;;2.85;91.16;100854.53;5074715;28;20634;-72
2022/04/11 01:43:38;;;;;;;1.83;1.00;;;;;;;2.91;90.48;100850.06;5074818;28;20231;-72
2022/04/11 01:46:04;;;;;;;1.70;0.70;;;;;;;2.85;90.42;100853.72;5074871;28;20185;-72
2022/04/11 01:48:29;;;;;;;3.53;1.67;;;;;;;2.82;90.55;100855.06;5074597;28;20174;-72
2022/04/11 01:50:54;;;;;;;1.10;0.80;;;;;;;2.80;90.41;100850.97;5074289;28;20244;-72
2022/04/11 01:53:20;;;;;;;0.80;0.80;;;;;;;2.68;90.49;100846.50;5074266;28;20179;-72
2022/04/11 01:55:46;;;;;;;0.83;0.83;;;;;;;2.59;90.81;100849.88;5074667;28;20269;-72
2022/04/11 01:58:13;;;;;;;2.10;1.00;;;;;;;2.44;91.52;100842.38;5072809;28;20178;-72
2022/04/11 02:00:39;;;;;;;1.40;1.30;;;;;;;2.33;92.14;100849.53;5074544;28;20179;-73
2022/04/11 02:03:06;;;;;;;0.83;0.50;;;;;;;2.30;93.16;100849.16;5074213;28;20205;-72
2022/04/11 02:05:31;;;;;;;3.43;0.73;;;;;;;2.13;93.67;100841.09;5074277;28;20170;-72
2022/04/11 02:07:57;;;;;;;1.67;0.80;;;;;;;2.05;94.23;100838.84;5073828;28;20186;-72
2022/04/11 02:10:23;;;;;;;1.67;1.00;;;;;;;1.93;94.91;100830.81;5074087;28;20209;-72
2022/04/11 02:12:49;;;;;;;0.97;0.80;;;;;;;1.94;95.37;100828.94;5074080;28;20178;-72
2022/04/11 02:15:16;;;;;;;1.13;1.03;;;;;;;1.86;95.71;100824.75;5074005;28;20265;-72
2022/04/11 02:17:41;;;;;;;0.57;0.57;;;;;;;1.81;95.95;100826.56;5073305;28;20428;-72
2022/04/11 02:20:08;;;;;;;1.20;0.90;;;;;;;1.88;96.44;100828.06;5073339;28;20178;-72
2022/04/11 02:22:52;;;;;;;1.40;0.90;;;;;;;1.89;96.42;100832.38;5073564;28;20166;-71
2022/04/11 02:25:20;;;;;;;1.30;1.20;;;;;;;1.77;96.72;100828.94;5073265;28;20175;-73
2022/04/11 02:27:46;;;;;;;3.00;0.90;;;;;;;1.80;96.60;100828.44;5073057;28;20198;-72
2022/04/11 02:30:13;;;;;;;1.63;1.10;;;;;;;1.80;96.91;100825.75;5073038;28;20211;-72
2022/04/11 02:32:39;;;;;;;1.07;0.97;;;;;;;1.79;96.86;100832.19;5073177;28;20190;-72
2022/04/11 02:35:05;;;;;;;2.20;1.10;;;;;;;1.73;96.58;100820.50;5073301;28;20171;-72
2022/04/11 02:37:31;;;;;;;2.87;1.43;;;;;;;1.61;96.23;100814.41;5072917;28;20187;-71
2022/04/11 02:39:56;;;;;;;1.60;0.90;;;;;;;1.66;96.42;100819.88;5073131;28;20196;-72
2022/04/11 02:42:26;;;;;;;1.13;1.03;;;;;;;1.42;96.29;100813.78;5073050;28;20177;-73
2022/04/11 02:44:52;;;;;;;1.30;1.00;;;;;;;1.43;96.76;100817.28;5072599;28;20185;-72
2022/04/11 02:47:17;;;;;;;1.13;1.03;;;;;;;1.40;96.86;100823.16;5072672;28;20171;-72
2022/04/11 02:49:43;;;;;;;1.30;1.20;;;;;;;1.41;96.56;100822.91;5073009;28;20202;-72
2022/04/11 02:52:09;;;;;;;2.57;1.50;;;;;;;1.40;96.46;100813.22;5072844;28;20183;-72
2022/04/11 02:54:36;;;;;;;1.53;1.30;;;;;;;1.33;96.20;100809.84;5072845;28;20171;-72
2022/04/11 02:57:01;;;;;;;2.67;1.40;;;;;;;1.28;96.14;100806.25;5072714;28;20186;-72
2022/04/11 02:59:27;;;;;;;3.43;1.40;;;;;;;1.19;96.24;100814.72;5072897;28;20174;-72
2022/04/11 03:01:52;;;;;;;2.10;1.57;;;;;;;1.13;97.00;100806.78;5073312;28;20174;-72
2022/04/11 03:04:18;;;;;;;1.50;1.40;;;;;;;1.12;97.07;100803.25;5072866;28;20216;-72
2022/04/11 03:06:43;;;;;;;1.50;1.23;;;;;;;1.09;97.28;100802.94;5072586;28;20532;-72
2022/04/11 03:09:08;;;;;;;2.73;2.10;;;;;;;1.08;97.63;100802.13;5072789;28;20241;-72
2022/04/11 03:11:34;;;;;;;1.40;1.30;;;;;;;1.08;97.96;100793.22;5073144;28;20265;-72
2022/04/11 03:14:00;;;;;;;1.20;1.10;;;;;;;0.85;98.97;100804.88;5072544;28;20178;-72
2022/04/11 03:16:26;;;;;;;2.50;1.43;;;;;;;0.85;99.71;100808.38;5073244;28;20174;-72
2022/04/11 03:18:52;;;;;;;1.90;1.80;;;;;;;0.53;100.00;100801.78;5072635;28;20232;-72
2022/04/11 03:21:17;;;;;;;2.40;1.60;;;;;;;0.45;100.00;100802.16;5072417;28;20182;-72
2022/04/11 03:23:42;;;;;;;2.03;1.40;;;;;;;0.61;100.00;100806.00;5072602;28;20254;-73
2022/04/11 03:26:07;;;;;;;1.70;1.60;;;;;;;0.65;100.00;100797.22;5072344;28;20292;-72
2022/04/11 03:28:33;;;;;;;2.37;1.37;;;;;;;0.73;100.00;100802.22;5071959;28;20744;-72
2022/04/11 03:30:59;;;;;;;5.23;1.90;;;;;;;0.62;100.00;100799.56;5072022;28;20209;-72
2022/04/11 03:33:25;;;;;;;3.23;1.90;;;;;;;0.53;100.00;100804.47;5072293;28;20185;-72
2022/04/11 03:35:50;;;;;;;1.77;1.53;;;;;;;0.41;100.00;100800.97;5072432;28;20424;-72
2022/04/11 03:38:16;;;;;;;2.37;1.70;;;;;;;0.44;100.00;100798.66;5072122;28;20365;-72
2022/04/11 03:40:41;;;;;;;1.53;1.43;;;;;;;0.38;100.00;100807.66;5071854;28;20240;-72
2022/04/11 03:43:07;;;;;;;1.70;1.57;;;;;;;0.27;100.00;100800.41;5071923;28;20348;-71
2022/04/11 03:45:32;;;;;;;1.47;1.37;;;;;;;0.25;100.00;100803.34;5071828;28;20265;-72
2022/04/11 03:47:57;;;;;;;3.67;1.70;;;;;;;0.18;100.00;100810.72;5071589;28;20216;-72
2022/04/11 03:50:23;;;;;;;2.03;1.50;;;;;;;0.22;100.00;100797.63;5071741;28;20695;-72
2022/04/11 03:52:49;;;;;;;2.70;1.60;;;;;;;0.17;100.00;100806.38;5071733;28;20228;-72
2022/04/11 03:55:14;;;;;;;3.67;1.70;;;;;;;0.27;100.00;100805.78;5069676;28;20177;-72
2022/04/11 03:57:39;;;;;;;1.20;1.10;;;;;;;0.33;100.00;100804.84;5071324;28;20261;-72
2022/04/11 04:00:05;;;;;;;1.80;1.70;;;;;;;0.02;100.00;100810.59;5071481;28;20508;-72
2022/04/11 04:02:30;;;;;;;2.03;1.20;;;;;;;-0.07;100.00;100805.56;5071423;28;20173;-72
2022/04/11 04:04:56;;;;;;;1.63;1.50;;;;;;;0.07;100.00;100810.69;5071454;28;20521;-71
2022/04/11 04:07:22;;;;;;;3.07;2.43;;;;;;;0.32;100.00;100807.78;5071225;28;20175;-72
2022/04/11 04:09:47;;;;;;;1.77;1.10;;;;;;;0.52;100.00;100814.41;5066936;28;20288;-71
2022/04/11 04:12:12;;;;;;;1.50;1.30;;;;;;;0.39;100.00;100814.66;5071943;28;20178;-72
2022/04/11 04:14:38;;;;;;;1.97;1.77;;;;;;;0.42;100.00;100816.06;5071587;28;20178;-72
2022/04/11 04:17:03;;;;;;;2.23;1.40;;;;;;;0.61;100.00;100822.13;5071587;28;20171;-72
2022/04/11 04:19:29;;;;;;;2.33;1.43;;;;;;;0.84;100.00;100822.06;5071390;28;20237;-72
2022/04/11 04:21:54;;;;;;;2.13;1.50;;;;;;;0.72;100.00;100818.56;5071578;28;20174;-72
2022/04/11 04:24:22;;;;;;;3.90;1.80;;;;;;;0.73;100.00;100815.69;5071457;28;20207;-71
2022/04/11 04:26:48;;;;;;;3.40;1.63;;;;;;;0.92;100.00;100821.72;5071362;28;20216;-73
2022/04/11 04:29:16;;;;;;;1.63;1.53;;;;;;;0.93;100.00;100820.66;5071600;28;20545;-73
2022/04/11 04:31:42;;;;;;;2.43;1.63;;;;;;;1.08;100.00;100820.94;5071412;28;20618;-72
2022/04/11 04:34:07;;;;;;;4.10;1.60;;;;;;;1.20;100.00;100823.59;5071451;28;20249;-72
2022/04/11 04:36:33;;;;;;;1.57;1.30;;;;;;;1.27;100.00;100810.00;5071285;28;20174;-72
2022/04/11 04:38:58;;;;;;;2.33;1.60;;;;;;;1.09;100.00;100811.81;5071081;28;20194;-72
2022/04/11 04:41:23;;;;;;;1.40;1.30;;;;;;;1.17;100.00;100821.41;5071200;28;20219;-73
2022/04/11 04:43:48;;;;;;;1.80;1.70;;;;;;;1.02;100.00;100813.03;5071496;28;20295;-72
2022/04/11 04:46:14;;;;;;;3.17;1.70;;;;;;;0.96;100.00;100819.34;5070321;28;20170;-72
2022/04/11 04:48:39;;;;;;;1.90;1.73;;;;;;;1.25;100.00;100821.00;5066742;28;20783;-73
2022/04/11 04:51:05;;;;;;;2.10;1.50;;;;;;;1.38;100.00;100817.19;5071263;28;20205;-72
2022/04/11 04:53:30;;;;;;;2.13;1.97;;;;;;;1.40;100.00;100821.28;5071059;28;20682;-71
2022/04/11 04:55:55;;;;;;;1.80;1.70;;;;;;;1.38;100.00;100827.97;5071030;28;20183;-72
2022/04/11 04:58:21;;;;;;;3.23;1.80;;;;;;;1.39;100.00;100822.34;5070959;28;20174;-72
2022/04/11 05:00:46;;;;;;;2.40;1.90;;;;;;;1.35;100.00;100825.75;5070968;28;20460;-72
2022/04/11 05:03:11;;;;;;;1.93;1.83;;;;;;;1.33;100.00;100826.00;5071043;28;20231;-72
2022/04/11 05:05:37;;;;;;;3.10;2.50;;;;;;;1.40;100.00;100823.97;5071082;28;20225;-72
2022/04/11 05:08:02;;;;;;;3.93;2.97;;;;;;;1.31;100.00;100819.25;5070769;28;20178;-73
2022/04/11 05:10:27;;;;;;;2.93;2.73;;;;;;;1.33;100.00;100826.00;5070865;28;20221;-72
2022/04/11 05:12:53;;;;;;;3.50;3.20;;;;;;;1.41;100.00;100827.47;5071011;28;20257;-72
2022/04/11 05:15:18;;;;;;;3.67;3.37;;;;;;;1.43;100.00;100814.59;5070772;28;20569;-73
2022/04/11 05:17:44;;;;;;;3.43;3.13;;;;;;;1.47;100.00;100818.47;5070770;28;20659;-72
2022/04/11 05:20:10;;;;;;;3.20;2.90;;;;;;;1.43;100.00;100820.78;5070515;28;20185;-72
2022/04/11 05:22:37;;;;;;;7.17;3.00;;;;;;;1.53;100.00;100816.66;5070977;28;20208;-72
2022/04/11 05:25:02;;;;;;;2.60;2.40;;;;;;;1.65;100.00;100820.94;5070834;28;20227;-72
2022/04/11 05:27:28;;;;;;;3.47;3.10;;;;;;;1.70;100.00;100815.63;5070576;28;20178;-73
2022/04/11 05:29:53;;;;;;;3.23;2.93;;;;;;;1.80;100.00;100814.97;5070601;28;20206;-72
2022/04/11 05:32:18;;;;;;;3.63;3.33;;;;;;;1.83;100.00;100813.66;5070731;28;20182;-72
2022/04/11 05:34:44;;;;;;;4.33;3.80;;;;;;;1.84;100.00;100818.00;5070633;28;20621;-72
2022/04/11 05:37:11;;;;;;;4.77;4.27;;;;;;;1.85;100.00;100822.31;5070455;28;20682;-72
2022/04/11 05:39:36;;;;;;;4.83;4.43;;;;;;;1.86;100.00;100819.38;5069207;28;20244;-71
2022/04/11 05:42:02;;;;;;;7.33;4.33;;;;;;;1.83;100.00;100821.75;5070691;28;20174;-72
2022/04/11 05:44:27;;;;;;;6.27;4.50;;;;;;;1.85;100.00;100819.63;5070634;28;20534;-72
2022/04/11 05:46:55;;;;;;;12.83;6.50;;;;;;;1.87;100.00;100817.50;5070388;28;20225;-72
2022/04/11 05:49:24;;;;;;;12.70;6.07;;;;;;;1.92;100.00;100823.00;5070427;28;20198;-73
2022/04/11 05:51:50;;;;;;;11.73;5.70;;;;;;;1.95;100.00;100812.53;5070405;28;20175;-72
2022/04/11 05:54:15;;;;;;;7.90;4.80;;;;;;;1.97;100.00;100820.38;5070525;28;20524;-71
2022/04/11 05:56:41;;;;;;;5.23;4.03;;;;;;;1.94;100.00;100807.38;5070648;28;20178;-72
2022/04/11 05:59:08;;;;;;;5.87;3.67;;;;;;;2.05;100.00;100809.19;5070441;28;20597;-72
2022/04/11 06:01:35;;;;;;;3.73;2.87;;;;;;;2.11;100.00;100818.97;5070457;28;20174;-72
2022/04/11 06:04:00;;;;;;;5.90;2.63;;;;;;;2.13;100.00;100808.75;5070408;28;20471;-72
2022/04/11 06:06:25;;;;;;;2.90;2.70;;;;;;;2.23;100.00;100814.31;5070345;28;20624;-72
2022/04/11 06:08:51;;;;;;;3.37;2.63;;;;;;;2.16;100.00;100807.44;5070180;28;20175;-72
2022/04/11 06:11:16;;;;;;;4.30;3.23;;;;;;;2.24;100.00;100812.44;5070325;28;20205;-73
2022/04/11 06:13:43;;;;;;;4.20;2.40;;;;;;;2.29;100.00;100809.81;5070258;28;20175;-73
2022/04/11 06:16:09;;;;;;;8.77;4.87;;;;;;;2.33;100.00;100817.16;5070191;28;20193;-73
2022/04/11 06:18:34;;;;;;;11.60;9.30;;;;;;;2.40;100.00;100811.59;5069183;28;20545;-72
2022/04/11 06:21:00;;;;;;;10.70;8.83;;;;;;;2.49;100.00;100814.69;5073987;28;20174;-72
2022/04/11 06:23:25;;;;;;;8.40;7.60;;;;;;;2.57;100.00;100820.44;5074190;28;20178;-72
2022/04/11 06:25:50;;;;;;;5.73;4.87;;;;;;;2.67;100.00;100815.19;5073941;28;20175;-73
2022/04/11 06:28:16;;;;;;;6.13;4.63;;;;;;;2.75;99.26;100818.50;5073965;28;20178;-72
2022/04/11 06:30:41;;;;;;;5.60;3.90;;;;;;;2.89;99.02;100814.38;5073593;28;20202;-73
2022/04/11 06:33:06;;;;;;;3.70;3.40;;;;;;;3.02;98.08;100832.06;5074036;28;20193;-72
2022/04/11 06:35:31;;;;;;;3.00;2.67;;;;;;;3.14;97.06;100817.38;5073793;28;20171;-72
2022/04/11 06:37:57;;;;;;;3.03;2.40;;;;;;;3.28;94.27;100818.63;5073860;28;20228;-72
2022/04/11 06:40:22;;;;;;;2.73;2.37;;;;;;;3.46;91.41;100828.25;5073510;28;20649;-72
2022/04/11 06:42:47;;;;;;;4.47;3.50;;;;;;;3.64;89.26;100824.41;5073561;28;20243;-72
2022/04/11 06:45:14;;;;;;;2.30;1.90;;;;;;;3.84;88.47;100823.75;5073464;28;20486;-72
2022/04/11 06:47:40;;;;;;;2.53;2.33;;;;;;;4.00;86.25;100822.00;5073154;28;20181;-73
2022/04/11 06:50:06;;;;;;;2.13;1.63;;;;;;;4.18;81.74;100818.88;5073357;28;20959;-73
2022/04/11 06:52:31;;;;;;;3.27;1.40;;;;;;;4.41;79.06;100823.09;5073372;28;20671;-73
2022/04/11 06:54:57;;;;;;;2.53;1.30;;;;;;;4.61;76.96;100822.41;5073336;28;20185;-72
2022/04/11 06:57:24;;;;;;;1.43;1.20;;;;;;;4.80;74.94;100820.88;5073230;28;20664;-72
2022/04/11 06:59:49;;;;;;;4.07;1.63;;;;;;;4.93;74.58;100814.19;5073164;28;20185;-73
2022/04/11 07:02:15;;;;;;;1.90;1.67;;;;;;;5.08;73.99;100819.66;5073171;28;20174;-74
2022/04/11 07:04:40;;;;;;;1.80;1.23;;;;;;;5.24;73.02;100818.63;5073225;28;20530;-73
2022/04/11 07:07:05;;;;;;;1.77;1.37;;;;;;;5.44;73.17;100815.13;5072925;28;20219;-73
2022/04/11 07:09:31;;;;;;;1.93;1.07;;;;;;;5.53;73.09;100818.13;5072995;28;20334;-74
2022/04/11 07:11:57;;;;;;;1.70;1.13;;;;;;;5.63;71.79;100816.25;5072902;28;20245;-72
2022/04/11 07:14:22;;;;;;;2.10;1.03;;;;;;;5.79;70.82;100811.66;5073047;28;20181;-72
2022/04/11 07:16:48;;;;;;;2.30;1.57;;;;;;;5.83;69.81;100812.75;5072796;28;20185;-71
2022/04/11 07:19:14;;;;;;;1.80;1.30;;;;;;;5.87;70.31;100805.69;5072656;28;20179;-72
2022/04/11 07:21:39;;;;;;;2.30;1.30;;;;;;;5.89;70.08;100800.00;5072840;28;20255;-72
2022/04/11 07:24:05;;;;;;;1.20;1.10;;;;;;;6.00;70.15;100806.28;5072865;28;20200;-73
2022/04/11 07:26:30;;;;;;;1.60;1.10;;;;;;;6.11;69.45;100807.91;5072773;28;20514;-75
2022/04/11 07:28:56;;;;;;;1.20;1.07;;;;;;;6.15;69.78;100806.25;5072418;28;20535;-72
2022/04/11 07:31:21;;;;;;;1.23;1.13;;;;;;;6.19;69.55;100810.03;5071329;28;20305;-75
2022/04/11 07:33:47;;;;;;;2.27;0.80;;;;;;;6.31;69.79;100809.75;5072551;28;20175;-73
2022/04/11 07:36:12;;;;;;;0.83;0.50;;;;;;;6.55;68.86;100808.09;5072777;28;20166;-72
2022/04/11 07:38:38;;;;;;;1.20;0.80;;;;;;;6.63;67.95;100815.66;5072357;28;20171;-72
2022/04/11 07:41:03;;;;;;;0.87;0.87;;;;;;;6.67;65.99;100810.50;5072419;28;20183;-74
2022/04/11 07:43:29;;;;;;;0.83;0.83;;;;;;;6.68;64.65;100815.66;5072684;28;20262;-74
2022/04/11 07:45:54;;;;;;;1.10;1.00;;;;;;;6.80;65.73;100815.34;5072336;28;20549;-75
2022/04/11 07:48:19;;;;;;;2.43;1.37;;;;;;;6.92;65.86;100821.25;5072214;28;20189;-72
2022/04/11 07:50:44;;;;;;;2.47;1.03;;;;;;;6.99;66.20;100824.50;5072154;28;20190;-75
2022/04/11 07:53:10;;;;;;;1.30;1.13;;;;;;;7.14;66.40;100815.47;5072207;28;20265;-75
2022/04/11 07:55:35;;;;;;;0.80;0.80;;;;;;;7.13;65.10;100813.84;5072184;28;20197;-72
2022/04/11 07:58:01;;;;;;;1.77;1.00;;;;;;;7.24;65.30;100818.16;5071875;28;20178;-71
2022/04/11 08:00:26;;;;;;;1.33;0.90;;;;;;;7.34;64.55;100814.53;5072065;28;20211;-72
2022/04/11 08:02:53;;;;;;;3.83;0.83;;;;;;;7.35;64.40;100824.31;5072322;28;20193;-71
2022/04/11 08:05:21;;;;;;;0.60;0.60;;;;;;;7.45;64.97;100819.66;5071933;28;20271;-72
2022/04/11 08:07:48;;;;;;;1.47;1.13;;;;;;;7.60;64.70;100829.59;5071700;28;20270;-72
2022/04/11 08:10:13;;;;;;;1.40;1.23;;;;;;;7.67;64.25;100824.69;5071794;28;20199;-71
2022/04/11 08:12:40;;;;;;;4.03;0.67;;;;;;;7.76;64.19;100828.41;5072222;28;20181;-71
2022/04/11 08:15:06;;;;;;;0.80;0.80;;;;;;;7.75;63.31;100826.78;5071880;28;20236;-72
2022/04/11 08:17:31;;;;;;;2.40;0.57;;;;;;;7.78;61.21;100825.41;5071503;28;20177;-72
2022/04/11 08:19:57;;;;;;;0.90;0.87;;;;;;;7.87;62.24;100833.78;5071217;28;20175;-71
2022/04/11 08:22:22;;;;;;;0.50;0.50;;;;;;;7.88;60.51;100822.63;5071632;28;20190;-71
2022/04/11 08:24:47;;;;;;;2.70;0.90;;;;;;;7.93;61.51;100835.34;5071506;28;20217;-72
2022/04/11 08:27:13;;;;;;;1.67;1.20;;;;;;;7.97;63.05;100829.09;5071545;28;20170;-72
2022/04/11 08:29:38;;;;;;;1.53;1.43;;;;;;;8.13;64.22;100834.41;5071466;28;20200;-73
2022/04/11 08:32:04;;;;;;;1.40;1.30;;;;;;;8.29;63.50;100839.41;5071239;28;20543;-72
2022/04/11 08:34:29;;;;;;;1.13;0.70;;;;;;;8.27;61.42;100829.91;5071015;28;20596;-74
2022/04/11 08:36:54;;;;;;;0.80;0.80;;;;;;;8.25;60.18;100818.50;5065100;28;20307;-73
2022/04/11 08:39:20;;;;;;;1.40;1.10;;;;;;;8.33;60.75;100818.69;5060413;28;20194;-73
2022/04/11 08:41:45;;;;;;;1.57;1.30;;;;;;;8.51;61.26;100821.81;5057329;28;20252;-73
2022/04/11 08:44:13;;;;;;;0.60;0.60;;;;;;;8.55;59.64;100822.88;5070700;28;20210;-73
2022/04/11 08:46:39;;;;;;;1.87;1.27;;;;;;;8.63;60.22;100824.94;5070287;28;20174;-73
2022/04/11 08:49:09;;;;;;;3.00;1.10;;;;;;;8.87;60.83;100828.50;5070158;28;20257;-74
2022/04/11 08:51:35;;;;;;;1.97;1.20;;;;;;;8.93;59.71;100835.50;5070480;28;20182;-72
2022/04/11 08:54:04;;;;;;;1.07;0.97;;;;;;;8.98;59.48;100831.91;5070568;28;20189;-72
2022/04/11 08:56:30;;;;;;;1.20;0.90;;;;;;;9.03;59.32;100831.84;5067279;28;20551;-73
2022/04/11 08:58:55;;;;;;;1.40;1.20;;;;;;;9.13;59.11;100831.72;5068540;28;20186;-73
2022/04/11 09:01:22;;;;;;;1.17;1.00;;;;;;;9.21;57.89;100835.69;5070787;28;20229;-73
2022/04/11 09:03:48;;;;;;;1.70;1.20;;;;;;;9.31;58.16;100834.75;5070655;28;20182;-73
2022/04/11 09:06:17;;;;;;;0.50;0.50;;;;;;;9.38;56.45;100832.47;5070683;28;20649;-73
2022/04/11 09:08:49;;;;;;;0.23;0.23;;;;;;;9.30;56.12;100836.69;5070740;28;20617;-72
2022/04/11 09:11:26;;;;;;;1.23;1.00;;;;;;;9.39;57.94;100834.09;5070160;28;20201;-73
2022/04/11 09:13:52;;;;;;;1.47;1.00;;;;;;;9.49;57.77;100837.50;5070284;28;20609;-73
2022/04/11 09:16:18;;;;;;;0.20;0.20;;;;;;;9.34;56.88;100837.72;5070541;28;20205;-73
2022/04/11 09:18:54;;;;;;;1.60;1.10;;;;;;;9.41;55.74;100827.25;5070354;28;20657;-72
2022/04/11 09:21:23;;;;;;;0.70;0.70;;;;;;;9.55;57.61;100835.53;5070414;28;20182;-72
2022/04/11 09:23:49;;;;;;;5.93;2.13;;;;;;;9.44;55.44;100834.84;5070298;28;20254;-73
2022/04/11 09:26:23;;;;;;;2.13;1.50;;;;;;;9.60;56.17;100834.63;5070273;28;20240;-73
2022/04/11 09:29:04;;;;;;;2.00;1.73;;;;;;;9.56;56.48;100831.69;5070253;28;20250;-72
2022/04/11 09:31:30;;;;;;;0.70;0.70;;;;;;;9.66;53.74;100825.25;5070360;28;20179;-72
2022/04/11 09:33:57;;;;;;;0.63;0.63;;;;;;;9.68;52.97;100834.75;5070419;28;20676;-73
2022/04/11 09:36:22;;;;;;;0.93;0.50;;;;;;;9.72;51.43;100829.53;5070357;28;20186;-73
2022/04/11 09:38:58;;;;;;;1.37;0.90;;;;;;;9.75;52.37;100821.56;5069891;28;20205;-73
2022/04/11 09:41:29;;;;;;;3.73;1.07;;;;;;;9.63;50.25;100817.66;5070171;28;20244;-74
2022/04/11 09:43:55;;;;;;;1.23;1.10;;;;;;;9.80;50.72;100817.94;5070237;28;20224;-73
2022/04/11 09:46:21;;;;;;;0.93;0.77;;;;;;;9.93;50.69;100819.91;5070089;28;20214;-74
2022/04/11 09:48:46;;;;;;;0.83;0.83;;;;;;;10.00;50.21;100817.63;5069799;28;20206;-73
2022/04/11 09:51:16;;;;;;;1.70;1.27;;;;;;;10.05;49.83;100819.47;5069993;28;20213;-72
2022/04/11 09:53:43;;;;;;;0.70;0.70;;;;;;;10.05;50.77;100814.81;5070976;28;20186;-72
2022/04/11 09:56:09;;;;;;;2.87;1.60;;;;;;;10.20;51.29;100813.75;5074020;28;20194;-72
2022/04/11 09:58:39;;;;;;;1.97;1.20;;;;;;;10.13;51.47;100816.06;5073758;28;20178;-76
2022/04/11 10:01:06;;;;;;;1.60;1.40;;;;;;;10.30;50.89;100813.59;5073791;28;20273;-73
2022/04/11 10:03:32;;;;;;;0.97;0.87;;;;;;;10.08;47.41;100813.41;5073906;28;20257;-72
2022/04/11 10:05:58;;;;;;;1.97;1.17;;;;;;;10.20;49.57;100804.75;5073681;28;20269;-72
2022/04/11 10:08:27;;;;;;;4.20;1.70;;;;;;;10.19;47.33;100805.84;5073883;28;20261;-72
2022/04/11 10:10:55;;;;;;;0.90;0.40;;;;;;;10.45;49.54;100811.72;5073683;28;20669;-72
2022/04/11 10:13:20;;;;;;;4.17;2.37;;;;;;;10.48;47.30;100800.97;5073884;28;20660;-72
2022/04/11 10:15:48;;;;;;;1.77;1.67;;;;;;;10.42;48.31;100799.47;5073980;28;20190;-73
2022/04/11 10:18:18;;;;;;;2.73;2.27;;;;;;;10.43;45.89;100792.88;5073878;28;20181;-73
2022/04/11 10:20:49;;;;;;;4.07;1.63;;;;;;;10.58;47.05;100787.13;5074106;28;20177;-72
2022/04/11 10:23:31;;;;;;;3.33;2.27;;;;;;;10.88;46.85;100795.84;5073503;28;20166;-74
2022/04/11 10:25:59;;;;;;;5.50;4.03;;;;;;;10.81;45.42;100781.75;5074034;28;20174;-72
2022/04/11 10:28:28;;;;;;;4.03;3.20;;;;;;;10.93;45.27;100791.06;5073483;28;20587;-72
2022/04/11 10:31:05;;;;;;;4.97;3.13;;;;;;;11.13;46.15;100789.81;5073522;28;20248;-71
2022/04/11 10:33:51;;;;;;;7.57;1.60;;;;;;;11.17;45.57;100781.81;5073914;28;20254;-71
2022/04/11 10:36:36;;;;;;;3.50;3.20;;;;;;;11.01;46.26;100779.44;5072986;28;20185;-71
2022/04/11 10:39:13;;;;;;;4.43;2.33;;;;;;;10.90;46.21;100772.53;5072800;28;20206;-71
2022/04/11 10:41:54;;;;;;;4.30;3.20;;;;;;;10.84;46.27;100773.75;5073506;28;20518;-71
2022/04/11 10:44:32;;;;;;;3.20;3.00;;;;;;;10.62;44.76;100769.00;5073135;28;20700;-71
2022/04/11 10:47:09;;;;;;;3.67;3.23;;;;;;;10.89;47.13;100772.84;5073056;28;20170;-71
2022/04/11 10:49:44;;;;;;;2.60;2.40;;;;;;;10.96;46.07;100775.97;5071638;28;20557;-72
2022/04/11 10:52:34;;;;;;;2.00;1.80;;;;;;;11.01;47.05;100776.69;5072811;28;20174;-71
2022/04/11 10:55:10;;;;;;;2.30;1.63;;;;;;;11.16;47.59;100791.97;5072803;28;20166;-71
2022/04/11 10:57:42;;;;;;;1.30;1.20;;;;;;;11.23;47.52;100780.59;5072696;28;20178;-71
2022/04/11 11:00:21;;;;;;;1.07;1.07;;;;;;;11.13;46.84;100776.13;5072722;28;20548;-71
2022/04/11 11:02:56;;;;;;;2.70;2.50;;;;;;;11.16;46.51;100774.75;5072899;28;20281;-71
2022/04/11 11:05:48;;;;;;;2.60;1.90;;;;;;;11.21;47.11;100771.88;5072401;28;20182;-71
2022/04/11 11:08:14;;;;;;;2.90;2.60;;;;;;;11.37;47.12;100769.63;5072434;28;20175;-71
2022/04/11 11:11:01;;;;;;;3.00;2.67;;;;;;;11.43;45.73;100769.22;5072486;28;20220;-71
2022/04/11 11:13:39;;;;;;;2.87;2.67;;;;;;;11.66;46.76;100766.47;5072533;28;20499;-72
2022/04/11 11:16:07;;;;;;;2.50;2.30;;;;;;;11.81;45.83;100755.97;5072338;28;20174;-71
2022/04/11 11:21:14;;;;;;;2.27;2.07;;;;;;;11.79;45.51;100760.97;5071322;28;20189;-71
2022/04/11 11:23:39;;;;;;;3.70;2.80;;;;;;;11.52;45.12;100750.09;5072156;28;20183;-71
2022/04/11 11:26:10;;;;;;;5.47;2.83;;;;;;;11.51;46.77;100752.03;5072362;28;20188;-71
2022/04/11 11:28:36;;;;;;;3.47;2.63;;;;;;;11.56;46.69;100751.09;5072101;28;20171;-71
2022/04/11 11:31:02;;;;;;;2.90;2.30;;;;;;;11.52;45.33;100748.19;5072143;28;20535;-72